sensor_id;sensor_type;location;lat;lon;timestamp;P1;durP1;ratioP1;P2;durP2;ratioP2
77466;SDS011;66564;42.482;25.548;2024-03-23T00:54:07;8.77;;;5.03;;
77466;SDS011;66564;42.482;25.548;2024-03-23T00:56:32;7.65;;;4.43;;
77466;SDS011;66564;42.482;25.548;2024-03-23T00:58:57;7.50;;;4.10;;
77466;SDS011;66564;42.482;25.548;2024-03-23T01:01:23;7.95;;;4.47;;
77466;SDS011;66564;42.482;25.548;2024-03-23T01:03:48;6.95;;;4.00;;
77466;SDS011;66564;42.482;25.548;2024-03-23T01:06:14;6.95;;;4.15;;
77466;SDS011;66564;42.482;25.548;2024-03-23T01:08:39;6.82;;;4.10;;
77466;SDS011;66564;42.482;25.548;2024-03-23T01:11:05;7.43;;;4.05;;
77466;SDS011;66564;42.482;25.548;2024-03-23T01:13:30;9.15;;;4.35;;
77466;SDS011;66564;42.482;25.548;2024-03-23T01:15:56;8.82;;;4.47;;
77466;SDS011;66564;42.482;25.548;2024-03-23T01:18:22;6.65;;;4.45;;
77466;SDS011;66564;42.482;25.548;2024-03-23T01:20:48;7.22;;;4.13;;
77466;SDS011;66564;42.482;25.548;2024-03-23T01:23:14;9.27;;;4.82;;
77466;SDS011;66564;42.482;25.548;2024-03-23T01:25:40;7.15;;;4.32;;
77466;SDS011;66564;42.482;25.548;2024-03-23T01:28:05;6.47;;;4.35;;
77466;SDS011;66564;42.482;25.548;2024-03-23T01:30:31;8.90;;;4.82;;
77466;SDS011;66564;42.482;25.548;2024-03-23T01:32:57;11.43;;;5.82;;
77466;SDS011;66564;42.482;25.548;2024-03-23T01:35:23;6.55;;;4.45;;
77466;SDS011;66564;42.482;25.548;2024-03-23T01:37:48;6.85;;;4.20;;
77466;SDS011;66564;42.482;25.548;2024-03-23T01:40:13;7.47;;;4.57;;
77466;SDS011;66564;42.482;25.548;2024-03-23T01:42:41;6.35;;;3.58;;
77466;SDS011;66564;42.482;25.548;2024-03-23T01:45:07;7.70;;;4.70;;
77466;SDS011;66564;42.482;25.548;2024-03-23T01:47:34;7.82;;;4.18;;
77466;SDS011;66564;42.482;25.548;2024-03-23T01:50:00;6.13;;;4.10;;
77466;SDS011;66564;42.482;25.548;2024-03-23T01:52:26;10.85;;;4.93;;
77466;SDS011;66564;42.482;25.548;2024-03-23T01:54:52;7.88;;;4.47;;
77466;SDS011;66564;42.482;25.548;2024-03-23T01:57:18;8.02;;;4.68;;
77466;SDS011;66564;42.482;25.548;2024-03-23T01:59:45;9.18;;;4.65;;
77466;SDS011;66564;42.482;25.548;2024-03-23T02:02:12;10.00;;;4.85;;
77466;SDS011;66564;42.482;25.548;2024-03-23T02:04:37;9.00;;;4.75;;
77466;SDS011;66564;42.482;25.548;2024-03-23T02:07:03;8.88;;;4.97;;
77466;SDS011;66564;42.482;25.548;2024-03-23T02:09:30;7.85;;;4.25;;
77466;SDS011;66564;42.482;25.548;2024-03-23T02:11:56;7.05;;;4.13;;
77466;SDS011;66564;42.482;25.548;2024-03-23T02:14:22;7.10;;;3.83;;
77466;SDS011;66564;42.482;25.548;2024-03-23T02:16:47;6.53;;;4.10;;
77466;SDS011;66564;42.482;25.548;2024-03-23T02:19:13;8.52;;;4.00;;
77466;SDS011;66564;42.482;25.548;2024-03-23T02:21:38;7.03;;;3.85;;
77466;SDS011;66564;42.482;25.548;2024-03-23T02:24:04;6.93;;;4.10;;
77466;SDS011;66564;42.482;25.548;2024-03-23T02:26:29;6.68;;;4.22;;
77466;SDS011;66564;42.482;25.548;2024-03-23T02:28:55;8.43;;;4.05;;
77466;SDS011;66564;42.482;25.548;2024-03-23T02:31:20;6.18;;;3.90;;
77466;SDS011;66564;42.482;25.548;2024-03-23T02:33:46;6.70;;;4.00;;
77466;SDS011;66564;42.482;25.548;2024-03-23T02:36:11;5.50;;;3.53;;
77466;SDS011;66564;42.482;25.548;2024-03-23T02:38:36;7.82;;;4.20;;
77466;SDS011;66564;42.482;25.548;2024-03-23T02:41:03;7.28;;;3.80;;
77466;SDS011;66564;42.482;25.548;2024-03-23T02:43:29;6.78;;;4.25;;
77466;SDS011;66564;42.482;25.548;2024-03-23T02:45:54;6.32;;;3.83;;
77466;SDS011;66564;42.482;25.548;2024-03-23T02:48:20;7.95;;;3.70;;
77466;SDS011;66564;42.482;25.548;2024-03-23T02:50:45;8.13;;;4.53;;
77466;SDS011;66564;42.482;25.548;2024-03-23T02:53:10;6.68;;;4.30;;
77466;SDS011;66564;42.482;25.548;2024-03-23T02:55:36;7.57;;;4.22;;
77466;SDS011;66564;42.482;25.548;2024-03-23T02:58:01;5.82;;;3.95;;
77466;SDS011;66564;42.482;25.548;2024-03-23T03:00:27;7.45;;;4.57;;
77466;SDS011;66564;42.482;25.548;2024-03-23T03:02:53;8.68;;;4.57;;
77466;SDS011;66564;42.482;25.548;2024-03-23T03:05:19;6.10;;;3.88;;
77466;SDS011;66564;42.482;25.548;2024-03-23T03:07:44;6.70;;;4.07;;
77466;SDS011;66564;42.482;25.548;2024-03-23T03:10:10;7.85;;;3.88;;
77466;SDS011;66564;42.482;25.548;2024-03-23T03:12:36;6.18;;;4.00;;
77466;SDS011;66564;42.482;25.548;2024-03-23T03:15:03;7.43;;;3.78;;
77466;SDS011;66564;42.482;25.548;2024-03-23T03:17:31;6.15;;;3.85;;
77466;SDS011;66564;42.482;25.548;2024-03-23T03:19:56;6.65;;;4.15;;
77466;SDS011;66564;42.482;25.548;2024-03-23T03:22:22;7.32;;;4.13;;
77466;SDS011;66564;42.482;25.548;2024-03-23T03:24:48;6.53;;;4.00;;
77466;SDS011;66564;42.482;25.548;2024-03-23T03:27:13;6.70;;;3.70;;
77466;SDS011;66564;42.482;25.548;2024-03-23T03:29:39;7.65;;;4.63;;
77466;SDS011;66564;42.482;25.548;2024-03-23T03:32:05;7.85;;;4.65;;
77466;SDS011;66564;42.482;25.548;2024-03-23T03:34:30;7.28;;;4.30;;
77466;SDS011;66564;42.482;25.548;2024-03-23T03:36:56;6.43;;;4.03;;
77466;SDS011;66564;42.482;25.548;2024-03-23T03:39:22;5.38;;;3.35;;
77466;SDS011;66564;42.482;25.548;2024-03-23T03:41:48;6.13;;;3.80;;
77466;SDS011;66564;42.482;25.548;2024-03-23T03:44:14;6.63;;;3.67;;
77466;SDS011;66564;42.482;25.548;2024-03-23T03:46:39;10.07;;;3.70;;
77466;SDS011;66564;42.482;25.548;2024-03-23T03:49:04;6.25;;;3.90;;
77466;SDS011;66564;42.482;25.548;2024-03-23T03:51:30;6.53;;;3.97;;
77466;SDS011;66564;42.482;25.548;2024-03-23T03:53:55;9.10;;;4.28;;
77466;SDS011;66564;42.482;25.548;2024-03-23T03:56:21;7.57;;;4.07;;
77466;SDS011;66564;42.482;25.548;2024-03-23T03:58:47;6.30;;;3.75;;
77466;SDS011;66564;42.482;25.548;2024-03-23T04:01:13;5.78;;;4.07;;
77466;SDS011;66564;42.482;25.548;2024-03-23T04:03:38;6.55;;;3.60;;
77466;SDS011;66564;42.482;25.548;2024-03-23T04:06:08;6.88;;;4.35;;
77466;SDS011;66564;42.482;25.548;2024-03-23T04:08:34;5.97;;;4.13;;
77466;SDS011;66564;42.482;25.548;2024-03-23T04:10:59;6.00;;;3.70;;
77466;SDS011;66564;42.482;25.548;2024-03-23T04:13:25;7.63;;;4.07;;
77466;SDS011;66564;42.482;25.548;2024-03-23T04:15:54;8.75;;;3.78;;
77466;SDS011;66564;42.482;25.548;2024-03-23T04:18:20;6.45;;;4.15;;
77466;SDS011;66564;42.482;25.548;2024-03-23T04:20:46;6.57;;;4.32;;
77466;SDS011;66564;42.482;25.548;2024-03-23T04:23:13;13.20;;;3.70;;
77466;SDS011;66564;42.482;25.548;2024-03-23T04:25:38;15.00;;;3.97;;
77466;SDS011;66564;42.482;25.548;2024-03-23T04:28:04;6.55;;;4.03;;
77466;SDS011;66564;42.482;25.548;2024-03-23T04:30:30;5.78;;;3.65;;
77466;SDS011;66564;42.482;25.548;2024-03-23T04:32:56;7.90;;;4.40;;
77466;SDS011;66564;42.482;25.548;2024-03-23T04:35:23;5.60;;;3.80;;
77466;SDS011;66564;42.482;25.548;2024-03-23T04:37:50;7.63;;;4.22;;
77466;SDS011;66564;42.482;25.548;2024-03-23T04:40:17;21.77;;;5.03;;
77466;SDS011;66564;42.482;25.548;2024-03-23T04:42:43;8.05;;;4.70;;
77466;SDS011;66564;42.482;25.548;2024-03-23T04:45:09;7.60;;;4.32;;
77466;SDS011;66564;42.482;25.548;2024-03-23T04:47:36;8.55;;;4.45;;
77466;SDS011;66564;42.482;25.548;2024-03-23T04:50:03;7.68;;;4.28;;
77466;SDS011;66564;42.482;25.548;2024-03-23T04:52:29;6.90;;;4.43;;
77466;SDS011;66564;42.482;25.548;2024-03-23T04:54:55;13.23;;;4.00;;
77466;SDS011;66564;42.482;25.548;2024-03-23T04:57:20;6.90;;;4.18;;
77466;SDS011;66564;42.482;25.548;2024-03-23T04:59:46;11.90;;;4.80;;
77466;SDS011;66564;42.482;25.548;2024-03-23T05:02:12;29.48;;;5.25;;
77466;SDS011;66564;42.482;25.548;2024-03-23T05:04:38;5.72;;;3.90;;
77466;SDS011;66564;42.482;25.548;2024-03-23T05:07:05;6.38;;;3.80;;
77466;SDS011;66564;42.482;25.548;2024-03-23T05:09:31;8.20;;;3.97;;
77466;SDS011;66564;42.482;25.548;2024-03-23T05:11:58;7.25;;;4.30;;
77466;SDS011;66564;42.482;25.548;2024-03-23T05:14:26;8.27;;;4.70;;
77466;SDS011;66564;42.482;25.548;2024-03-23T05:16:52;59.33;;;7.93;;
77466;SDS011;66564;42.482;25.548;2024-03-23T05:19:18;29.75;;;6.45;;
77466;SDS011;66564;42.482;25.548;2024-03-23T05:21:43;8.13;;;4.38;;
77466;SDS011;66564;42.482;25.548;2024-03-23T05:24:09;10.48;;;6.50;;
77466;SDS011;66564;42.482;25.548;2024-03-23T05:26:35;14.52;;;5.57;;
77466;SDS011;66564;42.482;25.548;2024-03-23T05:29:01;9.70;;;5.40;;
77466;SDS011;66564;42.482;25.548;2024-03-23T05:31:27;8.60;;;5.50;;
77466;SDS011;66564;42.482;25.548;2024-03-23T05:33:54;8.45;;;5.95;;
77466;SDS011;66564;42.482;25.548;2024-03-23T05:36:20;7.57;;;4.47;;
77466;SDS011;66564;42.482;25.548;2024-03-23T05:38:46;7.50;;;4.18;;
77466;SDS011;66564;42.482;25.548;2024-03-23T05:41:11;9.98;;;6.63;;
77466;SDS011;66564;42.482;25.548;2024-03-23T05:43:37;8.07;;;5.35;;
77466;SDS011;66564;42.482;25.548;2024-03-23T05:46:03;7.70;;;5.03;;
77466;SDS011;66564;42.482;25.548;2024-03-23T05:48:32;6.72;;;4.20;;
77466;SDS011;66564;42.482;25.548;2024-03-23T05:50:58;7.82;;;4.28;;
77466;SDS011;66564;42.482;25.548;2024-03-23T05:53:25;8.45;;;4.20;;
77466;SDS011;66564;42.482;25.548;2024-03-23T05:55:51;7.85;;;4.28;;
77466;SDS011;66564;42.482;25.548;2024-03-23T05:58:25;13.02;;;5.40;;
77466;SDS011;66564;42.482;25.548;2024-03-23T06:00:56;11.38;;;5.30;;
77466;SDS011;66564;42.482;25.548;2024-03-23T06:03:22;6.47;;;4.10;;
77466;SDS011;66564;42.482;25.548;2024-03-23T06:05:48;5.70;;;4.10;;
77466;SDS011;66564;42.482;25.548;2024-03-23T06:08:13;9.20;;;4.28;;
77466;SDS011;66564;42.482;25.548;2024-03-23T06:10:40;7.60;;;4.15;;
77466;SDS011;66564;42.482;25.548;2024-03-23T06:13:05;10.02;;;3.70;;
77466;SDS011;66564;42.482;25.548;2024-03-23T06:15:31;6.82;;;4.00;;
77466;SDS011;66564;42.482;25.548;2024-03-23T06:17:56;8.13;;;4.93;;
77466;SDS011;66564;42.482;25.548;2024-03-23T06:20:22;10.35;;;4.55;;
77466;SDS011;66564;42.482;25.548;2024-03-23T06:22:47;6.75;;;4.57;;
77466;SDS011;66564;42.482;25.548;2024-03-23T06:25:13;9.48;;;5.25;;
77466;SDS011;66564;42.482;25.548;2024-03-23T06:27:38;6.32;;;4.10;;
77466;SDS011;66564;42.482;25.548;2024-03-23T06:30:04;7.13;;;4.20;;
77466;SDS011;66564;42.482;25.548;2024-03-23T06:32:32;12.93;;;4.95;;
77466;SDS011;66564;42.482;25.548;2024-03-23T06:34:57;8.00;;;4.38;;
77466;SDS011;66564;42.482;25.548;2024-03-23T06:37:23;7.13;;;4.35;;
77466;SDS011;66564;42.482;25.548;2024-03-23T06:39:50;6.57;;;4.18;;
77466;SDS011;66564;42.482;25.548;2024-03-23T06:42:15;5.25;;;3.45;;
77466;SDS011;66564;42.482;25.548;2024-03-23T06:44:41;6.50;;;3.40;;
77466;SDS011;66564;42.482;25.548;2024-03-23T06:47:06;5.85;;;3.15;;
77466;SDS011;66564;42.482;25.548;2024-03-23T06:49:32;5.72;;;3.42;;
77466;SDS011;66564;42.482;25.548;2024-03-23T06:51:57;4.80;;;3.05;;
77466;SDS011;66564;42.482;25.548;2024-03-23T06:54:24;10.82;;;3.22;;
77466;SDS011;66564;42.482;25.548;2024-03-23T06:56:49;7.97;;;3.85;;
77466;SDS011;66564;42.482;25.548;2024-03-23T06:59:15;6.63;;;3.50;;
77466;SDS011;66564;42.482;25.548;2024-03-23T07:01:41;8.45;;;3.55;;
77466;SDS011;66564;42.482;25.548;2024-03-23T07:04:07;4.88;;;3.00;;
77466;SDS011;66564;42.482;25.548;2024-03-23T07:06:33;4.88;;;3.00;;
77466;SDS011;66564;42.482;25.548;2024-03-23T07:08:59;4.72;;;3.08;;
77466;SDS011;66564;42.482;25.548;2024-03-23T07:11:25;6.47;;;3.95;;
77466;SDS011;66564;42.482;25.548;2024-03-23T07:13:51;5.28;;;3.25;;
77466;SDS011;66564;42.482;25.548;2024-03-23T07:16:17;5.45;;;3.00;;
77466;SDS011;66564;42.482;25.548;2024-03-23T07:18:43;4.88;;;3.10;;
77466;SDS011;66564;42.482;25.548;2024-03-23T07:21:09;4.32;;;2.92;;
77466;SDS011;66564;42.482;25.548;2024-03-23T07:23:34;4.53;;;2.95;;
77466;SDS011;66564;42.482;25.548;2024-03-23T07:26:00;6.47;;;2.95;;
77466;SDS011;66564;42.482;25.548;2024-03-23T07:28:27;4.32;;;3.05;;
77466;SDS011;66564;42.482;25.548;2024-03-23T07:31:06;4.85;;;3.22;;
77466;SDS011;66564;42.482;25.548;2024-03-23T07:33:37;5.65;;;3.28;;
77466;SDS011;66564;42.482;25.548;2024-03-23T07:36:06;4.50;;;3.03;;
77466;SDS011;66564;42.482;25.548;2024-03-23T07:38:32;4.50;;;3.10;;
77466;SDS011;66564;42.482;25.548;2024-03-23T07:43:32;4.63;;;3.20;;
77466;SDS011;66564;42.482;25.548;2024-03-23T07:45:58;4.00;;;2.78;;
77466;SDS011;66564;42.482;25.548;2024-03-23T07:48:24;3.60;;;2.72;;
77466;SDS011;66564;42.482;25.548;2024-03-23T07:50:59;4.80;;;3.50;;
77466;SDS011;66564;42.482;25.548;2024-03-23T07:53:25;4.55;;;3.10;;
77466;SDS011;66564;42.482;25.548;2024-03-23T07:55:58;5.82;;;3.50;;
77466;SDS011;66564;42.482;25.548;2024-03-23T07:58:24;4.35;;;2.95;;
77466;SDS011;66564;42.482;25.548;2024-03-23T08:00:51;4.75;;;3.20;;
77466;SDS011;66564;42.482;25.548;2024-03-23T08:03:17;4.05;;;2.83;;
77466;SDS011;66564;42.482;25.548;2024-03-23T08:05:42;4.65;;;2.80;;
77466;SDS011;66564;42.482;25.548;2024-03-23T08:08:08;4.05;;;2.88;;
77466;SDS011;66564;42.482;25.548;2024-03-23T08:10:33;4.70;;;3.10;;
77466;SDS011;66564;42.482;25.548;2024-03-23T08:12:59;3.67;;;2.60;;
77466;SDS011;66564;42.482;25.548;2024-03-23T08:15:24;4.55;;;3.05;;
77466;SDS011;66564;42.482;25.548;2024-03-23T08:17:50;4.95;;;2.72;;
77466;SDS011;66564;42.482;25.548;2024-03-23T08:20:15;4.65;;;2.90;;
77466;SDS011;66564;42.482;25.548;2024-03-23T08:22:44;4.07;;;2.63;;
77466;SDS011;66564;42.482;25.548;2024-03-23T08:25:09;4.88;;;3.10;;
77466;SDS011;66564;42.482;25.548;2024-03-23T08:27:34;4.82;;;3.47;;
77466;SDS011;66564;42.482;25.548;2024-03-23T08:30:00;5.53;;;3.53;;
77466;SDS011;66564;42.482;25.548;2024-03-23T08:32:25;4.22;;;2.55;;
77466;SDS011;66564;42.482;25.548;2024-03-23T08:34:51;4.90;;;3.10;;
77466;SDS011;66564;42.482;25.548;2024-03-23T08:37:16;4.40;;;2.90;;
77466;SDS011;66564;42.482;25.548;2024-03-23T08:39:43;4.32;;;3.33;;
77466;SDS011;66564;42.482;25.548;2024-03-23T08:42:08;4.97;;;3.72;;
77466;SDS011;66564;42.482;25.548;2024-03-23T08:44:34;5.57;;;3.92;;
77466;SDS011;66564;42.482;25.548;2024-03-23T08:47:00;7.50;;;4.05;;
77466;SDS011;66564;42.482;25.548;2024-03-23T08:49:26;5.35;;;3.58;;
77466;SDS011;66564;42.482;25.548;2024-03-23T08:51:51;6.03;;;3.70;;
77466;SDS011;66564;42.482;25.548;2024-03-23T08:54:17;5.10;;;3.25;;
77466;SDS011;66564;42.482;25.548;2024-03-23T08:56:45;5.15;;;3.47;;
77466;SDS011;66564;42.482;25.548;2024-03-23T08:59:11;5.90;;;3.88;;
77466;SDS011;66564;42.482;25.548;2024-03-23T09:01:36;5.20;;;3.55;;
77466;SDS011;66564;42.482;25.548;2024-03-23T09:04:02;5.47;;;3.50;;
77466;SDS011;66564;42.482;25.548;2024-03-23T09:06:27;5.03;;;3.90;;
77466;SDS011;66564;42.482;25.548;2024-03-23T09:08:56;8.55;;;4.10;;
77466;SDS011;66564;42.482;25.548;2024-03-23T09:11:21;4.72;;;3.55;;
77466;SDS011;66564;42.482;25.548;2024-03-23T09:13:47;6.13;;;3.92;;
77466;SDS011;66564;42.482;25.548;2024-03-23T09:16:12;7.90;;;4.15;;
77466;SDS011;66564;42.482;25.548;2024-03-23T09:18:38;11.15;;;4.13;;
77466;SDS011;66564;42.482;25.548;2024-03-23T09:21:04;5.55;;;4.10;;
77466;SDS011;66564;42.482;25.548;2024-03-23T09:23:36;5.00;;;3.55;;
77466;SDS011;66564;42.482;25.548;2024-03-23T09:26:04;9.20;;;4.90;;
77466;SDS011;66564;42.482;25.548;2024-03-23T09:28:32;7.32;;;4.30;;
77466;SDS011;66564;42.482;25.548;2024-03-23T09:31:04;7.32;;;4.13;;
77466;SDS011;66564;42.482;25.548;2024-03-23T09:33:31;6.25;;;3.95;;
77466;SDS011;66564;42.482;25.548;2024-03-23T09:35:56;7.97;;;3.92;;
77466;SDS011;66564;42.482;25.548;2024-03-23T09:38:25;6.22;;;4.05;;
77466;SDS011;66564;42.482;25.548;2024-03-23T09:40:53;5.25;;;4.03;;
77466;SDS011;66564;42.482;25.548;2024-03-23T09:43:19;6.85;;;4.07;;
77466;SDS011;66564;42.482;25.548;2024-03-23T09:45:44;6.00;;;3.90;;
77466;SDS011;66564;42.482;25.548;2024-03-23T09:48:11;8.18;;;4.18;;
77466;SDS011;66564;42.482;25.548;2024-03-23T09:50:40;7.35;;;3.45;;
77466;SDS011;66564;42.482;25.548;2024-03-23T09:53:06;6.95;;;3.58;;
77466;SDS011;66564;42.482;25.548;2024-03-23T09:55:33;6.03;;;3.50;;
77466;SDS011;66564;42.482;25.548;2024-03-23T09:58:00;7.18;;;3.30;;
77466;SDS011;66564;42.482;25.548;2024-03-23T10:00:26;4.82;;;3.35;;
77466;SDS011;66564;42.482;25.548;2024-03-23T10:02:51;5.50;;;3.42;;
77466;SDS011;66564;42.482;25.548;2024-03-23T10:05:20;6.28;;;3.10;;
77466;SDS011;66564;42.482;25.548;2024-03-23T10:07:48;22.23;;;4.95;;
77466;SDS011;66564;42.482;25.548;2024-03-23T10:10:15;5.82;;;3.63;;
77466;SDS011;66564;42.482;25.548;2024-03-23T10:12:47;5.43;;;3.53;;
77466;SDS011;66564;42.482;25.548;2024-03-23T10:15:25;6.35;;;3.65;;
77466;SDS011;66564;42.482;25.548;2024-03-23T10:17:51;9.13;;;3.83;;
77466;SDS011;66564;42.482;25.548;2024-03-23T10:20:20;4.43;;;3.20;;
77466;SDS011;66564;42.482;25.548;2024-03-23T10:22:48;5.57;;;3.75;;
77466;SDS011;66564;42.482;25.548;2024-03-23T10:25:15;5.15;;;3.13;;
77466;SDS011;66564;42.482;25.548;2024-03-23T10:27:40;7.75;;;3.00;;
77466;SDS011;66564;42.482;25.548;2024-03-23T10:30:09;4.68;;;2.92;;
77466;SDS011;66564;42.482;25.548;2024-03-23T10:32:42;5.50;;;2.95;;
77466;SDS011;66564;42.482;25.548;2024-03-23T10:35:14;6.05;;;3.80;;
77466;SDS011;66564;42.482;25.548;2024-03-23T10:37:42;5.85;;;3.40;;
77466;SDS011;66564;42.482;25.548;2024-03-23T10:40:09;5.45;;;3.88;;
77466;SDS011;66564;42.482;25.548;2024-03-23T10:42:36;5.00;;;3.38;;
77466;SDS011;66564;42.482;25.548;2024-03-23T10:45:03;11.40;;;3.70;;
77466;SDS011;66564;42.482;25.548;2024-03-23T10:47:30;6.20;;;3.20;;
77466;SDS011;66564;42.482;25.548;2024-03-23T10:49:56;5.32;;;3.42;;
77466;SDS011;66564;42.482;25.548;2024-03-23T10:52:22;19.45;;;3.97;;
77466;SDS011;66564;42.482;25.548;2024-03-23T10:54:48;17.00;;;4.55;;
77466;SDS011;66564;42.482;25.548;2024-03-23T10:57:39;5.30;;;3.35;;
77466;SDS011;66564;42.482;25.548;2024-03-23T11:00:06;5.55;;;3.25;;
77466;SDS011;66564;42.482;25.548;2024-03-23T11:02:33;5.40;;;3.17;;
77466;SDS011;66564;42.482;25.548;2024-03-23T11:04:59;5.40;;;3.30;;
77466;SDS011;66564;42.482;25.548;2024-03-23T11:09:53;6.20;;;3.70;;
77466;SDS011;66564;42.482;25.548;2024-03-23T11:15:04;4.55;;;2.75;;
77466;SDS011;66564;42.482;25.548;2024-03-23T11:17:31;5.05;;;3.05;;
77466;SDS011;66564;42.482;25.548;2024-03-23T11:25:24;5.97;;;3.28;;
77466;SDS011;66564;42.482;25.548;2024-03-23T11:32:53;5.57;;;2.97;;
77466;SDS011;66564;42.482;25.548;2024-03-23T11:35:32;6.53;;;3.72;;
77466;SDS011;66564;42.482;25.548;2024-03-23T11:40:36;4.80;;;2.90;;
77466;SDS011;66564;42.482;25.548;2024-03-23T11:43:07;5.25;;;3.38;;
77466;SDS011;66564;42.482;25.548;2024-03-23T11:45:38;4.60;;;3.10;;
77466;SDS011;66564;42.482;25.548;2024-03-23T11:48:06;4.70;;;3.33;;
77466;SDS011;66564;42.482;25.548;2024-03-23T11:51:05;4.90;;;3.70;;
77466;SDS011;66564;42.482;25.548;2024-03-23T11:53:30;4.15;;;2.72;;
77466;SDS011;66564;42.482;25.548;2024-03-23T11:55:57;5.32;;;2.88;;
77466;SDS011;66564;42.482;25.548;2024-03-23T11:58:24;4.38;;;2.90;;
77466;SDS011;66564;42.482;25.548;2024-03-23T12:01:03;4.18;;;3.05;;
77466;SDS011;66564;42.482;25.548;2024-03-23T12:03:30;10.63;;;5.43;;
77466;SDS011;66564;42.482;25.548;2024-03-23T12:06:00;4.90;;;3.22;;
77466;SDS011;66564;42.482;25.548;2024-03-23T12:11:06;4.95;;;3.05;;
77466;SDS011;66564;42.482;25.548;2024-03-23T12:13:32;8.25;;;3.00;;
77466;SDS011;66564;42.482;25.548;2024-03-23T12:16:14;10.50;;;3.25;;
77466;SDS011;66564;42.482;25.548;2024-03-23T12:18:40;4.78;;;3.28;;
77466;SDS011;66564;42.482;25.548;2024-03-23T12:21:07;4.22;;;2.67;;
77466;SDS011;66564;42.482;25.548;2024-03-23T12:23:33;9.32;;;3.60;;
77466;SDS011;66564;42.482;25.548;2024-03-23T12:25:59;5.32;;;3.10;;
77466;SDS011;66564;42.482;25.548;2024-03-23T12:28:25;4.25;;;3.13;;
77466;SDS011;66564;42.482;25.548;2024-03-23T12:30:51;4.60;;;2.80;;
77466;SDS011;66564;42.482;25.548;2024-03-23T12:33:17;4.60;;;2.92;;
77466;SDS011;66564;42.482;25.548;2024-03-23T12:35:43;7.07;;;2.60;;
77466;SDS011;66564;42.482;25.548;2024-03-23T12:38:09;7.22;;;3.30;;
77466;SDS011;66564;42.482;25.548;2024-03-23T12:40:34;5.38;;;3.17;;
77466;SDS011;66564;42.482;25.548;2024-03-23T12:42:59;8.50;;;4.72;;
77466;SDS011;66564;42.482;25.548;2024-03-23T12:45:25;9.90;;;4.10;;
77466;SDS011;66564;42.482;25.548;2024-03-23T12:47:50;13.98;;;5.90;;
77466;SDS011;66564;42.482;25.548;2024-03-23T12:50:18;3.88;;;2.30;;
77466;SDS011;66564;42.482;25.548;2024-03-23T12:52:44;7.43;;;2.97;;
77466;SDS011;66564;42.482;25.548;2024-03-23T12:55:09;6.60;;;3.40;;
77466;SDS011;66564;42.482;25.548;2024-03-23T12:57:35;5.60;;;3.15;;
77466;SDS011;66564;42.482;25.548;2024-03-23T13:00:01;5.15;;;2.70;;
77466;SDS011;66564;42.482;25.548;2024-03-23T13:02:28;3.13;;;2.45;;
77466;SDS011;66564;42.482;25.548;2024-03-23T13:04:54;5.93;;;3.10;;
77466;SDS011;66564;42.482;25.548;2024-03-23T13:07:20;4.30;;;2.70;;
77466;SDS011;66564;42.482;25.548;2024-03-23T13:09:46;4.15;;;2.67;;
77466;SDS011;66564;42.482;25.548;2024-03-23T13:12:12;3.88;;;2.60;;
77466;SDS011;66564;42.482;25.548;2024-03-23T13:14:41;5.68;;;3.53;;
77466;SDS011;66564;42.482;25.548;2024-03-23T13:17:09;5.68;;;2.97;;
77466;SDS011;66564;42.482;25.548;2024-03-23T13:19:34;3.88;;;2.58;;
77466;SDS011;66564;42.482;25.548;2024-03-23T13:22:00;4.25;;;2.50;;
77466;SDS011;66564;42.482;25.548;2024-03-23T13:24:26;4.72;;;2.83;;
77466;SDS011;66564;42.482;25.548;2024-03-23T13:26:53;6.32;;;3.10;;
77466;SDS011;66564;42.482;25.548;2024-03-23T13:29:19;4.32;;;2.67;;
77466;SDS011;66564;42.482;25.548;2024-03-23T13:31:49;5.85;;;2.90;;
77466;SDS011;66564;42.482;25.548;2024-03-23T13:34:15;3.95;;;2.83;;
77466;SDS011;66564;42.482;25.548;2024-03-23T13:36:42;4.47;;;2.63;;
77466;SDS011;66564;42.482;25.548;2024-03-23T13:39:11;5.05;;;3.03;;
77466;SDS011;66564;42.482;25.548;2024-03-23T13:41:39;5.93;;;2.80;;
77466;SDS011;66564;42.482;25.548;2024-03-23T13:44:09;6.80;;;2.85;;
77466;SDS011;66564;42.482;25.548;2024-03-23T13:46:36;5.78;;;3.00;;
77466;SDS011;66564;42.482;25.548;2024-03-23T13:49:02;4.53;;;2.83;;
77466;SDS011;66564;42.482;25.548;2024-03-23T13:51:28;4.22;;;2.90;;
77466;SDS011;66564;42.482;25.548;2024-03-23T13:53:56;5.75;;;3.25;;
77466;SDS011;66564;42.482;25.548;2024-03-23T13:56:25;4.57;;;2.78;;
77466;SDS011;66564;42.482;25.548;2024-03-23T13:58:50;5.15;;;3.05;;
77466;SDS011;66564;42.482;25.548;2024-03-23T14:01:16;4.00;;;2.75;;
77466;SDS011;66564;42.482;25.548;2024-03-23T14:03:42;3.60;;;2.60;;
77466;SDS011;66564;42.482;25.548;2024-03-23T14:06:09;4.80;;;2.92;;
77466;SDS011;66564;42.482;25.548;2024-03-23T14:08:37;4.82;;;2.58;;
77466;SDS011;66564;42.482;25.548;2024-03-23T14:11:06;5.60;;;3.17;;
77466;SDS011;66564;42.482;25.548;2024-03-23T14:13:33;3.03;;;2.45;;
77466;SDS011;66564;42.482;25.548;2024-03-23T14:15:59;3.60;;;2.38;;
77466;SDS011;66564;42.482;25.548;2024-03-23T14:18:25;4.35;;;2.83;;
77466;SDS011;66564;42.482;25.548;2024-03-23T14:20:57;4.47;;;2.90;;
77466;SDS011;66564;42.482;25.548;2024-03-23T14:23:24;4.75;;;2.75;;
77466;SDS011;66564;42.482;25.548;2024-03-23T14:25:52;4.25;;;2.97;;
77466;SDS011;66564;42.482;25.548;2024-03-23T14:28:18;7.38;;;3.05;;
77466;SDS011;66564;42.482;25.548;2024-03-23T14:30:44;8.13;;;3.10;;
77466;SDS011;66564;42.482;25.548;2024-03-23T14:33:09;6.50;;;2.88;;
77466;SDS011;66564;42.482;25.548;2024-03-23T14:35:35;5.82;;;2.97;;
77466;SDS011;66564;42.482;25.548;2024-03-23T14:38:01;5.78;;;2.67;;
77466;SDS011;66564;42.482;25.548;2024-03-23T14:40:27;3.53;;;2.60;;
77466;SDS011;66564;42.482;25.548;2024-03-23T14:42:53;5.28;;;2.85;;
77466;SDS011;66564;42.482;25.548;2024-03-23T14:45:20;4.10;;;2.75;;
77466;SDS011;66564;42.482;25.548;2024-03-23T14:47:46;4.65;;;3.00;;
77466;SDS011;66564;42.482;25.548;2024-03-23T14:50:12;4.82;;;2.78;;
77466;SDS011;66564;42.482;25.548;2024-03-23T14:52:40;7.55;;;3.63;;
77466;SDS011;66564;42.482;25.548;2024-03-23T14:55:07;10.13;;;3.58;;
77466;SDS011;66564;42.482;25.548;2024-03-23T14:57:34;8.30;;;3.50;;
77466;SDS011;66564;42.482;25.548;2024-03-23T15:00:00;6.82;;;3.00;;
77466;SDS011;66564;42.482;25.548;2024-03-23T15:02:25;4.35;;;3.20;;
77466;SDS011;66564;42.482;25.548;2024-03-23T15:04:52;4.72;;;2.72;;
77466;SDS011;66564;42.482;25.548;2024-03-23T15:07:19;4.88;;;3.45;;
77466;SDS011;66564;42.482;25.548;2024-03-23T15:09:44;10.13;;;3.92;;
77466;SDS011;66564;42.482;25.548;2024-03-23T15:12:10;8.18;;;3.83;;
77466;SDS011;66564;42.482;25.548;2024-03-23T15:14:35;5.60;;;2.78;;
77466;SDS011;66564;42.482;25.548;2024-03-23T15:17:01;5.53;;;2.72;;
77466;SDS011;66564;42.482;25.548;2024-03-23T15:19:29;4.15;;;2.95;;
77466;SDS011;66564;42.482;25.548;2024-03-23T15:21:55;3.65;;;2.53;;
77466;SDS011;66564;42.482;25.548;2024-03-23T15:24:21;3.85;;;2.65;;
77466;SDS011;66564;42.482;25.548;2024-03-23T15:26:47;7.70;;;3.38;;
77466;SDS011;66564;42.482;25.548;2024-03-23T15:29:14;14.13;;;6.57;;
77466;SDS011;66564;42.482;25.548;2024-03-23T15:31:42;7.28;;;3.55;;
77466;SDS011;66564;42.482;25.548;2024-03-23T15:34:08;4.38;;;2.70;;
77466;SDS011;66564;42.482;25.548;2024-03-23T15:36:36;4.28;;;2.75;;
77466;SDS011;66564;42.482;25.548;2024-03-23T15:39:03;5.35;;;2.70;;
77466;SDS011;66564;42.482;25.548;2024-03-23T15:41:29;4.68;;;2.78;;
77466;SDS011;66564;42.482;25.548;2024-03-23T15:43:56;4.18;;;2.47;;
77466;SDS011;66564;42.482;25.548;2024-03-23T15:46:21;4.35;;;2.65;;